sensor_id;sensor_type;location;lat;lon;timestamp;P1;durP1;ratioP1;P2;durP2;ratioP2
16472;SDS011;8347;52.486;13.432;2023-05-15T00:00:37;9.45;;;8.30;;
16472;SDS011;8347;52.486;13.432;2023-05-15T00:03:25;12.00;;;8.70;;
16472;SDS011;8347;52.486;13.432;2023-05-15T00:06:12;9.20;;;7.90;;
16472;SDS011;8347;52.486;13.432;2023-05-15T00:08:58;11.40;;;8.57;;
16472;SDS011;8347;52.486;13.432;2023-05-15T00:11:45;13.65;;;8.85;;
16472;SDS011;8347;52.486;13.432;2023-05-15T00:14:31;12.55;;;8.77;;
16472;SDS011;8347;52.486;13.432;2023-05-15T00:17:18;16.20;;;9.27;;
16472;SDS011;8347;52.486;13.432;2023-05-15T00:20:04;14.85;;;9.63;;
16472;SDS011;8347;52.486;13.432;2023-05-15T00:22:52;11.38;;;8.73;;
16472;SDS011;8347;52.486;13.432;2023-05-15T00:25:38;15.90;;;8.52;;
16472;SDS011;8347;52.486;13.432;2023-05-15T00:28:25;12.35;;;8.65;;
16472;SDS011;8347;52.486;13.432;2023-05-15T00:31:11;15.27;;;10.07;;
16472;SDS011;8347;52.486;13.432;2023-05-15T00:33:59;15.95;;;9.38;;
16472;SDS011;8347;52.486;13.432;2023-05-15T00:36:46;14.57;;;10.07;;
16472;SDS011;8347;52.486;13.432;2023-05-15T00:39:33;11.05;;;9.18;;
16472;SDS011;8347;52.486;13.432;2023-05-15T00:42:19;13.77;;;10.20;;
16472;SDS011;8347;52.486;13.432;2023-05-15T00:45:07;14.73;;;9.65;;
16472;SDS011;8347;52.486;13.432;2023-05-15T00:47:56;12.80;;;8.98;;
16472;SDS011;8347;52.486;13.432;2023-05-15T00:50:43;13.60;;;9.60;;
16472;SDS011;8347;52.486;13.432;2023-05-15T00:53:30;14.93;;;9.38;;
16472;SDS011;8347;52.486;13.432;2023-05-15T00:56:17;15.77;;;9.43;;
16472;SDS011;8347;52.486;13.432;2023-05-15T00:59:04;11.60;;;9.38;;
16472;SDS011;8347;52.486;13.432;2023-05-15T01:01:52;17.50;;;10.23;;
16472;SDS011;8347;52.486;13.432;2023-05-15T01:04:39;16.40;;;11.65;;
16472;SDS011;8347;52.486;13.432;2023-05-15T01:07:25;17.95;;;12.95;;
16472;SDS011;8347;52.486;13.432;2023-05-15T01:10:12;19.25;;;13.45;;
16472;SDS011;8347;52.486;13.432;2023-05-15T01:13:00;17.70;;;13.07;;
16472;SDS011;8347;52.486;13.432;2023-05-15T01:15:48;16.63;;;13.15;;
16472;SDS011;8347;52.486;13.432;2023-05-15T01:18:35;14.32;;;11.07;;
16472;SDS011;8347;52.486;13.432;2023-05-15T01:21:26;13.70;;;11.23;;
16472;SDS011;8347;52.486;13.432;2023-05-15T01:27:24;17.02;;;12.15;;
16472;SDS011;8347;52.486;13.432;2023-05-15T01:30:35;16.05;;;13.25;;
16472;SDS011;8347;52.486;13.432;2023-05-15T01:33:27;15.68;;;11.45;;
16472;SDS011;8347;52.486;13.432;2023-05-15T01:36:20;15.85;;;10.90;;
16472;SDS011;8347;52.486;13.432;2023-05-15T01:39:10;18.77;;;11.88;;
16472;SDS011;8347;52.486;13.432;2023-05-15T01:41:59;16.48;;;11.60;;
16472;SDS011;8347;52.486;13.432;2023-05-15T01:44:52;17.20;;;12.05;;
16472;SDS011;8347;52.486;13.432;2023-05-15T01:47:42;16.40;;;11.73;;
16472;SDS011;8347;52.486;13.432;2023-05-15T01:50:29;14.30;;;11.13;;
16472;SDS011;8347;52.486;13.432;2023-05-15T01:53:18;14.00;;;11.05;;
16472;SDS011;8347;52.486;13.432;2023-05-15T01:56:05;18.88;;;9.90;;
16472;SDS011;8347;52.486;13.432;2023-05-15T01:58:54;14.02;;;10.52;;
16472;SDS011;8347;52.486;13.432;2023-05-15T02:01:42;14.57;;;10.85;;
16472;SDS011;8347;52.486;13.432;2023-05-15T02:04:30;12.82;;;9.63;;
16472;SDS011;8347;52.486;13.432;2023-05-15T02:07:17;14.02;;;10.25;;
16472;SDS011;8347;52.486;13.432;2023-05-15T02:10:03;14.43;;;10.27;;
16472;SDS011;8347;52.486;13.432;2023-05-15T02:12:50;15.32;;;10.55;;
16472;SDS011;8347;52.486;13.432;2023-05-15T02:15:40;15.98;;;11.00;;
16472;SDS011;8347;52.486;13.432;2023-05-15T02:18:28;16.95;;;11.48;;
16472;SDS011;8347;52.486;13.432;2023-05-15T02:21:16;11.10;;;9.77;;
16472;SDS011;8347;52.486;13.432;2023-05-15T02:24:03;15.73;;;12.15;;
16472;SDS011;8347;52.486;13.432;2023-05-15T02:27:08;14.43;;;10.93;;
16472;SDS011;8347;52.486;13.432;2023-05-15T02:35:42;15.48;;;11.30;;
16472;SDS011;8347;52.486;13.432;2023-05-15T02:38:32;14.73;;;11.52;;
16472;SDS011;8347;52.486;13.432;2023-05-15T02:41:23;15.85;;;11.43;;
16472;SDS011;8347;52.486;13.432;2023-05-15T02:44:11;16.85;;;11.02;;
16472;SDS011;8347;52.486;13.432;2023-05-15T02:46:59;12.90;;;11.35;;
16472;SDS011;8347;52.486;13.432;2023-05-15T02:49:46;13.95;;;10.82;;
16472;SDS011;8347;52.486;13.432;2023-05-15T02:52:33;18.95;;;11.68;;
16472;SDS011;8347;52.486;13.432;2023-05-15T02:55:20;16.33;;;11.23;;
16472;SDS011;8347;52.486;13.432;2023-05-15T02:58:06;15.02;;;11.48;;
16472;SDS011;8347;52.486;13.432;2023-05-15T03:00:53;12.60;;;10.32;;
16472;SDS011;8347;52.486;13.432;2023-05-15T03:03:39;13.98;;;11.35;;
16472;SDS011;8347;52.486;13.432;2023-05-15T03:06:26;14.23;;;10.52;;
16472;SDS011;8347;52.486;13.432;2023-05-15T03:09:13;13.95;;;11.85;;
16472;SDS011;8347;52.486;13.432;2023-05-15T03:11:59;14.43;;;11.65;;
16472;SDS011;8347;52.486;13.432;2023-05-15T03:14:45;13.80;;;10.63;;
16472;SDS011;8347;52.486;13.432;2023-05-15T03:17:32;15.18;;;10.93;;
16472;SDS011;8347;52.486;13.432;2023-05-15T03:20:19;18.77;;;12.10;;
16472;SDS011;8347;52.486;13.432;2023-05-15T03:23:05;13.60;;;10.43;;
16472;SDS011;8347;52.486;13.432;2023-05-15T03:25:51;14.05;;;10.98;;
16472;SDS011;8347;52.486;13.432;2023-05-15T03:28:38;12.20;;;10.80;;
16472;SDS011;8347;52.486;13.432;2023-05-15T03:31:24;17.77;;;12.25;;
16472;SDS011;8347;52.486;13.432;2023-05-15T03:34:11;14.00;;;11.07;;
16472;SDS011;8347;52.486;13.432;2023-05-15T03:36:57;16.80;;;13.00;;
16472;SDS011;8347;52.486;13.432;2023-05-15T03:39:44;16.05;;;12.75;;
16472;SDS011;8347;52.486;13.432;2023-05-15T03:42:31;12.85;;;10.52;;
16472;SDS011;8347;52.486;13.432;2023-05-15T03:45:18;12.48;;;10.73;;
16472;SDS011;8347;52.486;13.432;2023-05-15T03:48:06;12.38;;;9.90;;
16472;SDS011;8347;52.486;13.432;2023-05-15T03:50:53;13.50;;;10.75;;
16472;SDS011;8347;52.486;13.432;2023-05-15T03:53:39;14.02;;;11.40;;
16472;SDS011;8347;52.486;13.432;2023-05-15T03:56:26;13.55;;;10.63;;
16472;SDS011;8347;52.486;13.432;2023-05-15T03:59:12;13.77;;;10.93;;
16472;SDS011;8347;52.486;13.432;2023-05-15T04:01:59;13.90;;;10.93;;
16472;SDS011;8347;52.486;13.432;2023-05-15T04:04:45;17.25;;;11.55;;
16472;SDS011;8347;52.486;13.432;2023-05-15T04:07:32;15.60;;;11.57;;
16472;SDS011;8347;52.486;13.432;2023-05-15T04:10:19;15.52;;;11.25;;
16472;SDS011;8347;52.486;13.432;2023-05-15T04:13:06;13.80;;;10.75;;
16472;SDS011;8347;52.486;13.432;2023-05-15T04:15:53;14.27;;;11.23;;
16472;SDS011;8347;52.486;13.432;2023-05-15T04:18:39;13.32;;;11.00;;
16472;SDS011;8347;52.486;13.432;2023-05-15T04:21:26;14.32;;;11.85;;
16472;SDS011;8347;52.486;13.432;2023-05-15T04:24:12;17.90;;;11.38;;
16472;SDS011;8347;52.486;13.432;2023-05-15T04:26:59;14.98;;;12.25;;
16472;SDS011;8347;52.486;13.432;2023-05-15T04:29:46;15.93;;;12.60;;
16472;SDS011;8347;52.486;13.432;2023-05-15T04:32:32;16.73;;;12.23;;
16472;SDS011;8347;52.486;13.432;2023-05-15T04:35:19;12.75;;;11.15;;
16472;SDS011;8347;52.486;13.432;2023-05-15T04:38:06;13.63;;;11.00;;
16472;SDS011;8347;52.486;13.432;2023-05-15T04:40:53;13.48;;;10.88;;
16472;SDS011;8347;52.486;13.432;2023-05-15T04:43:39;16.05;;;11.70;;
16472;SDS011;8347;52.486;13.432;2023-05-15T04:46:25;13.88;;;11.45;;
16472;SDS011;8347;52.486;13.432;2023-05-15T04:49:13;12.48;;;10.65;;
16472;SDS011;8347;52.486;13.432;2023-05-15T04:52:00;15.88;;;9.82;;
16472;SDS011;8347;52.486;13.432;2023-05-15T04:54:46;15.70;;;11.40;;
16472;SDS011;8347;52.486;13.432;2023-05-15T04:57:35;18.25;;;11.65;;
16472;SDS011;8347;52.486;13.432;2023-05-15T05:00:22;14.60;;;10.88;;
16472;SDS011;8347;52.486;13.432;2023-05-15T05:03:08;17.38;;;10.73;;
16472;SDS011;8347;52.486;13.432;2023-05-15T05:05:54;14.05;;;10.38;;
16472;SDS011;8347;52.486;13.432;2023-05-15T05:08:41;14.07;;;9.85;;
16472;SDS011;8347;52.486;13.432;2023-05-15T05:11:28;12.35;;;10.77;;
16472;SDS011;8347;52.486;13.432;2023-05-15T05:14:14;14.55;;;10.30;;
16472;SDS011;8347;52.486;13.432;2023-05-15T05:17:01;15.80;;;8.95;;
16472;SDS011;8347;52.486;13.432;2023-05-15T05:19:48;14.10;;;9.57;;
16472;SDS011;8347;52.486;13.432;2023-05-15T05:22:35;31.95;;;11.85;;
16472;SDS011;8347;52.486;13.432;2023-05-15T05:25:21;19.05;;;9.07;;
16472;SDS011;8347;52.486;13.432;2023-05-15T05:28:07;38.75;;;13.75;;
16472;SDS011;8347;52.486;13.432;2023-05-15T05:30:54;16.10;;;8.88;;
16472;SDS011;8347;52.486;13.432;2023-05-15T05:33:41;8.90;;;8.00;;
16472;SDS011;8347;52.486;13.432;2023-05-15T05:36:28;16.58;;;8.88;;
16472;SDS011;8347;52.486;13.432;2023-05-15T05:39:15;13.10;;;7.95;;
16472;SDS011;8347;52.486;13.432;2023-05-15T05:42:02;16.67;;;8.90;;
16472;SDS011;8347;52.486;13.432;2023-05-15T05:44:48;12.75;;;8.93;;
16472;SDS011;8347;52.486;13.432;2023-05-15T05:47:35;12.45;;;8.48;;
16472;SDS011;8347;52.486;13.432;2023-05-15T05:50:22;13.98;;;8.65;;
16472;SDS011;8347;52.486;13.432;2023-05-15T05:53:08;13.48;;;7.78;;
16472;SDS011;8347;52.486;13.432;2023-05-15T05:55:55;15.45;;;7.82;;
16472;SDS011;8347;52.486;13.432;2023-05-15T05:58:42;18.08;;;7.80;;
16472;SDS011;8347;52.486;13.432;2023-05-15T06:01:28;10.32;;;6.72;;
16472;SDS011;8347;52.486;13.432;2023-05-15T06:04:14;12.18;;;8.27;;
16472;SDS011;8347;52.486;13.432;2023-05-15T06:07:01;11.95;;;8.77;;
16472;SDS011;8347;52.486;13.432;2023-05-15T06:09:48;12.35;;;7.70;;
16472;SDS011;8347;52.486;13.432;2023-05-15T06:12:34;12.38;;;7.80;;
16472;SDS011;8347;52.486;13.432;2023-05-15T06:15:21;13.00;;;7.55;;
16472;SDS011;8347;52.486;13.432;2023-05-15T06:18:08;8.60;;;7.25;;
16472;SDS011;8347;52.486;13.432;2023-05-15T06:20:54;10.73;;;7.40;;
16472;SDS011;8347;52.486;13.432;2023-05-15T06:23:43;9.43;;;7.43;;
16472;SDS011;8347;52.486;13.432;2023-05-15T06:26:30;11.85;;;8.43;;
16472;SDS011;8347;52.486;13.432;2023-05-15T06:29:16;11.55;;;7.72;;
16472;SDS011;8347;52.486;13.432;2023-05-15T06:32:03;9.25;;;8.07;;
16472;SDS011;8347;52.486;13.432;2023-05-15T06:34:50;15.23;;;7.82;;
16472;SDS011;8347;52.486;13.432;2023-05-15T06:37:37;15.40;;;8.75;;
16472;SDS011;8347;52.486;13.432;2023-05-15T06:40:24;10.15;;;7.32;;
16472;SDS011;8347;52.486;13.432;2023-05-15T06:43:10;8.75;;;7.75;;
16472;SDS011;8347;52.486;13.432;2023-05-15T06:45:57;33.13;;;13.07;;
16472;SDS011;8347;52.486;13.432;2023-05-15T06:48:44;11.90;;;7.78;;
16472;SDS011;8347;52.486;13.432;2023-05-15T06:51:30;10.00;;;6.80;;
16472;SDS011;8347;52.486;13.432;2023-05-15T06:54:17;9.55;;;7.22;;
16472;SDS011;8347;52.486;13.432;2023-05-15T06:57:04;8.93;;;6.55;;
16472;SDS011;8347;52.486;13.432;2023-05-15T06:59:50;13.93;;;7.03;;
16472;SDS011;8347;52.486;13.432;2023-05-15T07:02:37;9.98;;;6.88;;
16472;SDS011;8347;52.486;13.432;2023-05-15T07:05:24;20.00;;;7.50;;
16472;SDS011;8347;52.486;13.432;2023-05-15T07:08:11;63.53;;;15.45;;
16472;SDS011;8347;52.486;13.432;2023-05-15T07:10:57;17.95;;;7.00;;
16472;SDS011;8347;52.486;13.432;2023-05-15T07:13:44;23.95;;;8.63;;
16472;SDS011;8347;52.486;13.432;2023-05-15T07:16:31;9.93;;;6.90;;
16472;SDS011;8347;52.486;13.432;2023-05-15T07:19:17;15.00;;;6.80;;
16472;SDS011;8347;52.486;13.432;2023-05-15T07:22:05;8.32;;;6.60;;
16472;SDS011;8347;52.486;13.432;2023-05-15T07:24:52;11.40;;;6.85;;
16472;SDS011;8347;52.486;13.432;2023-05-15T07:27:39;10.48;;;6.10;;
16472;SDS011;8347;52.486;13.432;2023-05-15T07:30:25;8.85;;;7.78;;
16472;SDS011;8347;52.486;13.432;2023-05-15T07:33:12;8.02;;;6.35;;
16472;SDS011;8347;52.486;13.432;2023-05-15T07:35:58;10.70;;;7.05;;
16472;SDS011;8347;52.486;13.432;2023-05-15T07:38:45;8.18;;;6.78;;
16472;SDS011;8347;52.486;13.432;2023-05-15T07:41:32;11.02;;;6.97;;
16472;SDS011;8347;52.486;13.432;2023-05-15T07:44:18;11.35;;;5.90;;
16472;SDS011;8347;52.486;13.432;2023-05-15T07:47:05;9.45;;;7.28;;
16472;SDS011;8347;52.486;13.432;2023-05-15T07:49:52;9.93;;;6.40;;
16472;SDS011;8347;52.486;13.432;2023-05-15T07:52:38;13.73;;;7.68;;
16472;SDS011;8347;52.486;13.432;2023-05-15T07:55:26;7.75;;;6.18;;
16472;SDS011;8347;52.486;13.432;2023-05-15T07:58:12;11.68;;;6.60;;
16472;SDS011;8347;52.486;13.432;2023-05-15T08:00:59;9.30;;;6.18;;
16472;SDS011;8347;52.486;13.432;2023-05-15T08:03:45;6.78;;;4.97;;
16472;SDS011;8347;52.486;13.432;2023-05-15T08:06:32;8.30;;;5.72;;
16472;SDS011;8347;52.486;13.432;2023-05-15T08:09:18;7.57;;;5.03;;
16472;SDS011;8347;52.486;13.432;2023-05-15T08:12:15;8.90;;;5.20;;
16472;SDS011;8347;52.486;13.432;2023-05-15T08:15:02;6.68;;;5.57;;
16472;SDS011;8347;52.486;13.432;2023-05-15T08:17:49;11.40;;;5.30;;
16472;SDS011;8347;52.486;13.432;2023-05-15T08:20:36;11.57;;;5.35;;
16472;SDS011;8347;52.486;13.432;2023-05-15T08:23:23;14.15;;;5.55;;
16472;SDS011;8347;52.486;13.432;2023-05-15T08:26:10;8.00;;;6.05;;
16472;SDS011;8347;52.486;13.432;2023-05-15T08:28:56;16.50;;;5.35;;
16472;SDS011;8347;52.486;13.432;2023-05-15T08:31:43;8.02;;;5.43;;
16472;SDS011;8347;52.486;13.432;2023-05-15T08:34:30;13.02;;;4.82;;
16472;SDS011;8347;52.486;13.432;2023-05-15T08:37:16;8.98;;;5.00;;
16472;SDS011;8347;52.486;13.432;2023-05-15T08:40:03;8.02;;;5.40;;
16472;SDS011;8347;52.486;13.432;2023-05-15T08:42:52;6.43;;;4.43;;
16472;SDS011;8347;52.486;13.432;2023-05-15T08:45:40;8.00;;;4.20;;
16472;SDS011;8347;52.486;13.432;2023-05-15T08:48:28;8.95;;;4.20;;
16472;SDS011;8347;52.486;13.432;2023-05-15T08:51:15;9.38;;;4.15;;
16472;SDS011;8347;52.486;13.432;2023-05-15T08:54:03;7.53;;;4.65;;
16472;SDS011;8347;52.486;13.432;2023-05-15T08:56:50;7.82;;;4.40;;
16472;SDS011;8347;52.486;13.432;2023-05-15T08:59:36;10.38;;;4.63;;
16472;SDS011;8347;52.486;13.432;2023-05-15T09:02:23;25.10;;;6.10;;
16472;SDS011;8347;52.486;13.432;2023-05-15T09:05:10;10.02;;;5.22;;
16472;SDS011;8347;52.486;13.432;2023-05-15T09:07:57;29.30;;;9.93;;
16472;SDS011;8347;52.486;13.432;2023-05-15T09:10:47;10.63;;;5.10;;
16472;SDS011;8347;52.486;13.432;2023-05-15T09:13:33;23.23;;;8.10;;
16472;SDS011;8347;52.486;13.432;2023-05-15T09:16:20;8.65;;;4.95;;
16472;SDS011;8347;52.486;13.432;2023-05-15T09:19:07;7.00;;;5.00;;
16472;SDS011;8347;52.486;13.432;2023-05-15T09:21:54;10.27;;;4.10;;
16472;SDS011;8347;52.486;13.432;2023-05-15T09:24:47;13.98;;;4.80;;
16472;SDS011;8347;52.486;13.432;2023-05-15T09:27:39;7.65;;;5.43;;
16472;SDS011;8347;52.486;13.432;2023-05-15T09:30:26;7.43;;;4.65;;
16472;SDS011;8347;52.486;13.432;2023-05-15T09:33:15;6.68;;;4.95;;
16472;SDS011;8347;52.486;13.432;2023-05-15T09:36:02;7.80;;;4.78;;
16472;SDS011;8347;52.486;13.432;2023-05-15T09:38:56;10.63;;;5.72;;
16472;SDS011;8347;52.486;13.432;2023-05-15T09:41:43;8.55;;;5.25;;
16472;SDS011;8347;52.486;13.432;2023-05-15T09:44:29;9.10;;;5.68;;
16472;SDS011;8347;52.486;13.432;2023-05-15T09:47:16;8.07;;;5.15;;
16472;SDS011;8347;52.486;13.432;2023-05-15T09:50:03;12.45;;;5.53;;
16472;SDS011;8347;52.486;13.432;2023-05-15T09:52:50;7.68;;;5.15;;
16472;SDS011;8347;52.486;13.432;2023-05-15T09:55:37;10.70;;;5.28;;
16472;SDS011;8347;52.486;13.432;2023-05-15T09:58:24;8.15;;;4.78;;
16472;SDS011;8347;52.486;13.432;2023-05-15T10:01:10;9.88;;;4.80;;
16472;SDS011;8347;52.486;13.432;2023-05-15T10:03:57;5.93;;;4.53;;
16472;SDS011;8347;52.486;13.432;2023-05-15T10:06:45;7.90;;;4.57;;
16472;SDS011;8347;52.486;13.432;2023-05-15T10:09:32;5.50;;;4.60;;
16472;SDS011;8347;52.486;13.432;2023-05-15T10:12:19;14.93;;;5.45;;
16472;SDS011;8347;52.486;13.432;2023-05-15T10:15:05;6.53;;;4.72;;
16472;SDS011;8347;52.486;13.432;2023-05-15T10:17:52;11.13;;;6.03;;
16472;SDS011;8347;52.486;13.432;2023-05-15T10:20:39;16.15;;;4.75;;
16472;SDS011;8347;52.486;13.432;2023-05-15T10:23:26;14.20;;;5.13;;
16472;SDS011;8347;52.486;13.432;2023-05-15T10:26:15;5.78;;;4.65;;
16472;SDS011;8347;52.486;13.432;2023-05-15T10:29:04;9.15;;;4.85;;
16472;SDS011;8347;52.486;13.432;2023-05-15T10:31:51;7.32;;;4.45;;
16472;SDS011;8347;52.486;13.432;2023-05-15T10:34:38;7.28;;;4.50;;
16472;SDS011;8347;52.486;13.432;2023-05-15T10:37:25;5.55;;;4.72;;
16472;SDS011;8347;52.486;13.432;2023-05-15T10:40:14;9.25;;;4.63;;
16472;SDS011;8347;52.486;13.432;2023-05-15T10:43:01;7.38;;;4.32;;
16472;SDS011;8347;52.486;13.432;2023-05-15T10:45:48;6.05;;;4.60;;
16472;SDS011;8347;52.486;13.432;2023-05-15T10:48:36;6.82;;;4.47;;
16472;SDS011;8347;52.486;13.432;2023-05-15T10:51:24;12.18;;;4.68;;
16472;SDS011;8347;52.486;13.432;2023-05-15T10:54:14;6.97;;;4.10;;
16472;SDS011;8347;52.486;13.432;2023-05-15T10:57:01;6.75;;;4.57;;
16472;SDS011;8347;52.486;13.432;2023-05-15T10:59:48;5.40;;;4.35;;
16472;SDS011;8347;52.486;13.432;2023-05-15T11:02:38;7.03;;;4.80;;
16472;SDS011;8347;52.486;13.432;2023-05-15T11:05:25;6.07;;;4.78;;
16472;SDS011;8347;52.486;13.432;2023-05-15T11:11:06;5.85;;;4.13;;
16472;SDS011;8347;52.486;13.432;2023-05-15T11:16:55;5.07;;;4.53;;
16472;SDS011;8347;52.486;13.432;2023-05-15T11:22:35;5.32;;;4.30;;
16472;SDS011;8347;52.486;13.432;2023-05-15T11:25:22;4.30;;;3.90;;
16472;SDS011;8347;52.486;13.432;2023-05-15T11:28:20;7.75;;;3.90;;
16472;SDS011;8347;52.486;13.432;2023-05-15T11:31:07;4.32;;;3.83;;
16472;SDS011;8347;52.486;13.432;2023-05-15T11:33:53;6.85;;;3.90;;
16472;SDS011;8347;52.486;13.432;2023-05-15T11:36:42;5.35;;;3.80;;
16472;SDS011;8347;52.486;13.432;2023-05-15T11:39:28;7.20;;;4.40;;
16472;SDS011;8347;52.486;13.432;2023-05-15T11:42:15;5.75;;;3.00;;
16472;SDS011;8347;52.486;13.432;2023-05-15T11:45:03;4.03;;;2.97;;
16472;SDS011;8347;52.486;13.432;2023-05-15T11:47:50;4.53;;;2.83;;
16472;SDS011;8347;52.486;13.432;2023-05-15T11:50:37;4.43;;;2.70;;
16472;SDS011;8347;52.486;13.432;2023-05-15T11:53:23;5.38;;;2.60;;
16472;SDS011;8347;52.486;13.432;2023-05-15T11:56:24;4.53;;;2.90;;
16472;SDS011;8347;52.486;13.432;2023-05-15T11:59:12;6.30;;;2.92;;
16472;SDS011;8347;52.486;13.432;2023-05-15T12:01:59;4.22;;;2.40;;
16472;SDS011;8347;52.486;13.432;2023-05-15T12:04:47;6.60;;;2.55;;
16472;SDS011;8347;52.486;13.432;2023-05-15T12:07:35;3.15;;;2.72;;
16472;SDS011;8347;52.486;13.432;2023-05-15T12:10:28;3.65;;;2.60;;
16472;SDS011;8347;52.486;13.432;2023-05-15T12:13:16;4.45;;;2.78;;
16472;SDS011;8347;52.486;13.432;2023-05-15T12:16:03;2.55;;;2.28;;
16472;SDS011;8347;52.486;13.432;2023-05-15T12:18:50;2.22;;;2.10;;
16472;SDS011;8347;52.486;13.432;2023-05-15T12:21:36;7.97;;;2.85;;
16472;SDS011;8347;52.486;13.432;2023-05-15T12:24:28;4.90;;;2.58;;
16472;SDS011;8347;52.486;13.432;2023-05-15T12:27:14;3.67;;;2.60;;
16472;SDS011;8347;52.486;13.432;2023-05-15T12:30:01;2.33;;;2.13;;
16472;SDS011;8347;52.486;13.432;2023-05-15T12:32:49;3.33;;;2.33;;
16472;SDS011;8347;52.486;13.432;2023-05-15T12:35:36;3.20;;;2.20;;
16472;SDS011;8347;52.486;13.432;2023-05-15T12:38:26;3.38;;;2.88;;
16472;SDS011;8347;52.486;13.432;2023-05-15T12:41:13;3.25;;;2.65;;
16472;SDS011;8347;52.486;13.432;2023-05-15T12:43:59;2.63;;;2.10;;
16472;SDS011;8347;52.486;13.432;2023-05-15T12:46:46;2.40;;;2.20;;
16472;SDS011;8347;52.486;13.432;2023-05-15T12:49:35;3.72;;;2.60;;
16472;SDS011;8347;52.486;13.432;2023-05-15T12:52:22;2.38;;;2.05;;
16472;SDS011;8347;52.486;13.432;2023-05-15T12:55:08;2.67;;;2.20;;
16472;SDS011;8347;52.486;13.432;2023-05-15T12:58:08;3.25;;;2.03;;
16472;SDS011;8347;52.486;13.432;2023-05-15T13:00:54;3.38;;;2.13;;
16472;SDS011;8347;52.486;13.432;2023-05-15T13:03:41;4.68;;;2.15;;
16472;SDS011;8347;52.486;13.432;2023-05-15T13:06:28;4.22;;;2.25;;
16472;SDS011;8347;52.486;13.432;2023-05-15T13:09:21;3.17;;;2.22;;
16472;SDS011;8347;52.486;13.432;2023-05-15T13:12:10;2.88;;;2.15;;
16472;SDS011;8347;52.486;13.432;2023-05-15T13:14:57;2.15;;;1.90;;
16472;SDS011;8347;52.486;13.432;2023-05-15T13:17:44;2.03;;;1.83;;
16472;SDS011;8347;52.486;13.432;2023-05-15T13:20:40;2.55;;;2.35;;
16472;SDS011;8347;52.486;13.432;2023-05-15T13:23:27;3.45;;;2.65;;
16472;SDS011;8347;52.486;13.432;2023-05-15T13:26:13;4.30;;;3.05;;
16472;SDS011;8347;52.486;13.432;2023-05-15T13:29:00;3.33;;;2.92;;
16472;SDS011;8347;52.486;13.432;2023-05-15T13:31:47;6.05;;;3.28;;
16472;SDS011;8347;52.486;13.432;2023-05-15T13:34:34;6.30;;;2.90;;
16472;SDS011;8347;52.486;13.432;2023-05-15T13:37:21;2.72;;;2.30;;
16472;SDS011;8347;52.486;13.432;2023-05-15T13:40:08;8.50;;;2.40;;
16472;SDS011;8347;52.486;13.432;2023-05-15T13:42:55;6.60;;;1.33;;
16472;SDS011;8347;52.486;13.432;2023-05-15T13:45:42;11.73;;;1.90;;
16472;SDS011;8347;52.486;13.432;2023-05-15T13:48:28;8.82;;;2.40;;
16472;SDS011;8347;52.486;13.432;2023-05-15T13:51:15;2.80;;;1.35;;
16472;SDS011;8347;52.486;13.432;2023-05-15T13:54:02;7.38;;;1.83;;
16472;SDS011;8347;52.486;13.432;2023-05-15T13:56:48;1.98;;;1.40;;
16472;SDS011;8347;52.486;13.432;2023-05-15T13:59:35;6.75;;;1.70;;
16472;SDS011;8347;52.486;13.432;2023-05-15T14:02:22;4.10;;;1.83;;
16472;SDS011;8347;52.486;13.432;2023-05-15T14:05:12;2.10;;;1.67;;
16472;SDS011;8347;52.486;13.432;2023-05-15T14:07:59;2.90;;;2.25;;
16472;SDS011;8347;52.486;13.432;2023-05-15T14:10:45;3.00;;;2.00;;
16472;SDS011;8347;52.486;13.432;2023-05-15T14:13:32;2.47;;;2.28;;
16472;SDS011;8347;52.486;13.432;2023-05-15T14:16:19;2.88;;;2.10;;
16472;SDS011;8347;52.486;13.432;2023-05-15T14:19:05;2.78;;;2.40;;
16472;SDS011;8347;52.486;13.432;2023-05-15T14:21:52;3.80;;;2.65;;
16472;SDS011;8347;52.486;13.432;2023-05-15T14:24:38;3.63;;;2.15;;
16472;SDS011;8347;52.486;13.432;2023-05-15T14:27:25;3.08;;;2.22;;
16472;SDS011;8347;52.486;13.432;2023-05-15T14:30:12;3.90;;;2.97;;
16472;SDS011;8347;52.486;13.432;2023-05-15T14:32:59;5.03;;;2.70;;
16472;SDS011;8347;52.486;13.432;2023-05-15T14:35:45;3.22;;;2.20;;
16472;SDS011;8347;52.486;13.432;2023-05-15T14:38:32;2.95;;;2.50;;
16472;SDS011;8347;52.486;13.432;2023-05-15T14:41:18;2.47;;;2.28;;
16472;SDS011;8347;52.486;13.432;2023-05-15T14:44:06;5.00;;;2.55;;
16472;SDS011;8347;52.486;13.432;2023-05-15T14:47:09;2.70;;;2.50;;
16472;SDS011;8347;52.486;13.432;2023-05-15T14:49:57;3.22;;;2.70;;
16472;SDS011;8347;52.486;13.432;2023-05-15T14:52:43;3.10;;;2.33;;
16472;SDS011;8347;52.486;13.432;2023-05-15T14:55:30;4.03;;;2.53;;
16472;SDS011;8347;52.486;13.432;2023-05-15T14:58:17;3.20;;;2.85;;
16472;SDS011;8347;52.486;13.432;2023-05-15T15:01:04;2.60;;;2.40;;
16472;SDS011;8347;52.486;13.432;2023-05-15T15:03:50;3.15;;;2.30;;
16472;SDS011;8347;52.486;13.432;2023-05-15T15:06:37;3.63;;;2.28;;
16472;SDS011;8347;52.486;13.432;2023-05-15T15:09:24;2.33;;;2.10;;
16472;SDS011;8347;52.486;13.432;2023-05-15T15:12:10;2.22;;;1.90;;
16472;SDS011;8347;52.486;13.432;2023-05-15T15:14:57;3.53;;;1.90;;
16472;SDS011;8347;52.486;13.432;2023-05-15T15:17:44;1.75;;;1.65;;
16472;SDS011;8347;52.486;13.432;2023-05-15T15:20:30;1.85;;;1.75;;
16472;SDS011;8347;52.486;13.432;2023-05-15T15:23:17;2.78;;;1.95;;
16472;SDS011;8347;52.486;13.432;2023-05-15T15:26:03;2.33;;;2.00;;
16472;SDS011;8347;52.486;13.432;2023-05-15T15:28:50;4.30;;;2.03;;
16472;SDS011;8347;52.486;13.432;2023-05-15T15:31:36;6.13;;;2.40;;
16472;SDS011;8347;52.486;13.432;2023-05-15T15:34:23;3.33;;;1.70;;
16472;SDS011;8347;52.486;13.432;2023-05-15T15:37:10;4.10;;;2.50;;
16472;SDS011;8347;52.486;13.432;2023-05-15T15:39:57;2.80;;;1.95;;
16472;SDS011;8347;52.486;13.432;2023-05-15T15:42:44;9.82;;;2.90;;
16472;SDS011;8347;52.486;13.432;2023-05-15T15:45:30;17.98;;;5.40;;
16472;SDS011;8347;52.486;13.432;2023-05-15T15:48:17;2.40;;;2.20;;
16472;SDS011;8347;52.486;13.432;2023-05-15T15:51:05;9.90;;;2.53;;
16472;SDS011;8347;52.486;13.432;2023-05-15T15:53:52;3.58;;;2.47;;
16472;SDS011;8347;52.486;13.432;2023-05-15T15:56:38;3.42;;;2.35;;
16472;SDS011;8347;52.486;13.432;2023-05-15T15:59:26;4.90;;;2.25;;
16472;SDS011;8347;52.486;13.432;2023-05-15T16:02:12;2.90;;;2.10;;
16472;SDS011;8347;52.486;13.432;2023-05-15T16:04:59;2.10;;;1.60;;
16472;SDS011;8347;52.486;13.432;2023-05-15T16:07:45;2.10;;;1.80;;
16472;SDS011;8347;52.486;13.432;2023-05-15T16:10:32;2.53;;;2.33;;
16472;SDS011;8347;52.486;13.432;2023-05-15T16:13:19;2.28;;;1.73;;
16472;SDS011;8347;52.486;13.432;2023-05-15T16:16:05;3.78;;;2.13;;
16472;SDS011;8347;52.486;13.432;2023-05-15T16:18:52;3.83;;;2.08;;
16472;SDS011;8347;52.486;13.432;2023-05-15T16:21:39;2.33;;;2.10;;
16472;SDS011;8347;52.486;13.432;2023-05-15T16:24:25;5.95;;;2.40;;
16472;SDS011;8347;52.486;13.432;2023-05-15T16:27:12;2.85;;;2.55;;
16472;SDS011;8347;52.486;13.432;2023-05-15T16:29:58;4.32;;;2.30;;
16472;SDS011;8347;52.486;13.432;2023-05-15T16:32:45;4.15;;;2.28;;
16472;SDS011;8347;52.486;13.432;2023-05-15T16:35:33;4.15;;;3.47;;
16472;SDS011;8347;52.486;13.432;2023-05-15T16:38:21;3.72;;;3.00;;
16472;SDS011;8347;52.486;13.432;2023-05-15T16:41:09;2.55;;;2.33;;
16472;SDS011;8347;52.486;13.432;2023-05-15T16:43:55;2.92;;;2.28;;
16472;SDS011;8347;52.486;13.432;2023-05-15T16:46:42;7.03;;;4.75;;
16472;SDS011;8347;52.486;13.432;2023-05-15T16:49:28;3.70;;;2.85;;
16472;SDS011;8347;52.486;13.432;2023-05-15T16:52:14;3.40;;;3.03;;
16472;SDS011;8347;52.486;13.432;2023-05-15T16:55:01;13.32;;;8.60;;